sensor_id;sensor_type;location;lat;lon;timestamp;P1;durP1;ratioP1;P2;durP2;ratioP2
59239;SDS011;45010;53.640;10.578;2022-11-18T00:02:15;2.10;;;1.75;;
59239;SDS011;45010;53.640;10.578;2022-11-18T00:05:15;3.45;;;2.20;;
59239;SDS011;45010;53.640;10.578;2022-11-18T00:08:15;2.60;;;1.92;;
59239;SDS011;45010;53.640;10.578;2022-11-18T00:11:19;2.45;;;1.92;;
59239;SDS011;45010;53.640;10.578;2022-11-18T00:14:41;2.03;;;1.80;;
59239;SDS011;45010;53.640;10.578;2022-11-18T00:17:41;2.53;;;2.03;;
59239;SDS011;45010;53.640;10.578;2022-11-18T00:20:41;2.22;;;1.83;;
59239;SDS011;45010;53.640;10.578;2022-11-18T00:23:41;2.40;;;2.13;;
59239;SDS011;45010;53.640;10.578;2022-11-18T00:26:42;1.92;;;1.70;;
59239;SDS011;45010;53.640;10.578;2022-11-18T00:29:42;2.67;;;2.00;;
59239;SDS011;45010;53.640;10.578;2022-11-18T00:32:42;2.17;;;1.80;;
59239;SDS011;45010;53.640;10.578;2022-11-18T00:35:51;2.70;;;1.75;;
59239;SDS011;45010;53.640;10.578;2022-11-18T00:38:53;2.92;;;1.83;;
59239;SDS011;45010;53.640;10.578;2022-11-18T00:41:53;2.20;;;1.80;;
59239;SDS011;45010;53.640;10.578;2022-11-18T00:45:13;2.47;;;2.00;;
59239;SDS011;45010;53.640;10.578;2022-11-18T00:48:13;2.20;;;1.80;;
59239;SDS011;45010;53.640;10.578;2022-11-18T00:51:14;2.40;;;1.88;;
59239;SDS011;45010;53.640;10.578;2022-11-18T00:54:16;2.47;;;2.28;;
59239;SDS011;45010;53.640;10.578;2022-11-18T00:57:17;1.92;;;1.75;;
59239;SDS011;45010;53.640;10.578;2022-11-18T01:00:17;2.25;;;1.98;;
59239;SDS011;45010;53.640;10.578;2022-11-18T01:03:18;1.92;;;1.80;;
59239;SDS011;45010;53.640;10.578;2022-11-18T01:06:19;2.40;;;2.17;;
59239;SDS011;45010;53.640;10.578;2022-11-18T01:09:20;2.10;;;1.90;;
59239;SDS011;45010;53.640;10.578;2022-11-18T01:12:20;2.15;;;1.75;;
59239;SDS011;45010;53.640;10.578;2022-11-18T01:15:40;1.83;;;1.60;;
59239;SDS011;45010;53.640;10.578;2022-11-18T01:18:42;2.65;;;2.10;;
59239;SDS011;45010;53.640;10.578;2022-11-18T01:21:42;2.40;;;1.92;;
59239;SDS011;45010;53.640;10.578;2022-11-18T01:24:42;1.98;;;1.65;;
59239;SDS011;45010;53.640;10.578;2022-11-18T01:27:43;1.98;;;1.85;;
59239;SDS011;45010;53.640;10.578;2022-11-18T01:30:43;1.92;;;1.70;;
59239;SDS011;45010;53.640;10.578;2022-11-18T01:33:45;2.85;;;1.52;;
59239;SDS011;45010;53.640;10.578;2022-11-18T01:36:46;2.28;;;1.85;;
59239;SDS011;45010;53.640;10.578;2022-11-18T01:39:46;2.00;;;1.80;;
59239;SDS011;45010;53.640;10.578;2022-11-18T01:42:46;3.13;;;1.75;;
59239;SDS011;45010;53.640;10.578;2022-11-18T01:45:48;2.20;;;1.80;;
59239;SDS011;45010;53.640;10.578;2022-11-18T01:48:54;2.03;;;1.60;;
59239;SDS011;45010;53.640;10.578;2022-11-18T01:51:58;2.35;;;1.60;;
59239;SDS011;45010;53.640;10.578;2022-11-18T01:55:01;1.85;;;1.65;;
59239;SDS011;45010;53.640;10.578;2022-11-18T01:58:07;1.83;;;1.73;;
59239;SDS011;45010;53.640;10.578;2022-11-18T02:01:11;2.30;;;1.92;;
59239;SDS011;45010;53.640;10.578;2022-11-18T02:04:12;1.90;;;1.80;;
59239;SDS011;45010;53.640;10.578;2022-11-18T02:07:13;2.00;;;1.70;;
59239;SDS011;45010;53.640;10.578;2022-11-18T02:10:19;2.00;;;1.80;;
59239;SDS011;45010;53.640;10.578;2022-11-18T02:13:21;2.10;;;1.90;;
59239;SDS011;45010;53.640;10.578;2022-11-18T02:16:25;1.77;;;1.55;;
59239;SDS011;45010;53.640;10.578;2022-11-18T02:20:29;2.25;;;2.05;;
59239;SDS011;45010;53.640;10.578;2022-11-18T02:30:57;1.90;;;1.80;;
59239;SDS011;45010;53.640;10.578;2022-11-18T02:34:22;1.70;;;1.60;;
59239;SDS011;45010;53.640;10.578;2022-11-18T02:37:32;1.60;;;1.50;;
59239;SDS011;45010;53.640;10.578;2022-11-18T02:40:45;1.80;;;1.70;;
59239;SDS011;45010;53.640;10.578;2022-11-18T02:43:50;1.90;;;1.80;;
59239;SDS011;45010;53.640;10.578;2022-11-18T02:46:55;2.10;;;1.88;;
59239;SDS011;45010;53.640;10.578;2022-11-18T02:50:05;1.80;;;1.70;;
59239;SDS011;45010;53.640;10.578;2022-11-18T02:53:09;1.50;;;1.40;;
59239;SDS011;45010;53.640;10.578;2022-11-18T02:56:14;2.17;;;1.98;;
59239;SDS011;45010;53.640;10.578;2022-11-18T02:59:17;2.22;;;1.50;;
59239;SDS011;45010;53.640;10.578;2022-11-18T03:02:18;1.88;;;1.70;;
59239;SDS011;45010;53.640;10.578;2022-11-18T03:08:31;2.42;;;1.60;;
59239;SDS011;45010;53.640;10.578;2022-11-18T03:15:00;1.95;;;1.50;;
59239;SDS011;45010;53.640;10.578;2022-11-18T03:18:31;1.60;;;1.50;;
59239;SDS011;45010;53.640;10.578;2022-11-18T03:21:44;1.90;;;1.48;;
59239;SDS011;45010;53.640;10.578;2022-11-18T03:24:53;1.65;;;1.55;;
59239;SDS011;45010;53.640;10.578;2022-11-18T03:28:09;1.80;;;1.70;;
59239;SDS011;45010;53.640;10.578;2022-11-18T03:31:28;1.60;;;1.50;;
59239;SDS011;45010;53.640;10.578;2022-11-18T03:34:44;1.70;;;1.55;;
59239;SDS011;45010;53.640;10.578;2022-11-18T03:37:49;2.25;;;2.03;;
59239;SDS011;45010;53.640;10.578;2022-11-18T03:40:54;1.80;;;1.70;;
59239;SDS011;45010;53.640;10.578;2022-11-18T03:44:03;1.85;;;1.70;;
59239;SDS011;45010;53.640;10.578;2022-11-18T03:47:14;1.98;;;1.73;;
59239;SDS011;45010;53.640;10.578;2022-11-18T03:50:21;1.80;;;1.70;;
59239;SDS011;45010;53.640;10.578;2022-11-18T03:53:27;1.83;;;1.73;;
59239;SDS011;45010;53.640;10.578;2022-11-18T03:56:33;2.10;;;1.70;;
59239;SDS011;45010;53.640;10.578;2022-11-18T03:59:44;1.70;;;1.60;;
59239;SDS011;45010;53.640;10.578;2022-11-18T04:02:48;1.70;;;1.60;;
59239;SDS011;45010;53.640;10.578;2022-11-18T04:05:49;1.98;;;1.60;;
59239;SDS011;45010;53.640;10.578;2022-11-18T04:08:54;1.80;;;1.70;;
59239;SDS011;45010;53.640;10.578;2022-11-18T04:12:00;1.77;;;1.52;;
59239;SDS011;45010;53.640;10.578;2022-11-18T04:15:05;1.65;;;1.55;;
59239;SDS011;45010;53.640;10.578;2022-11-18T04:18:06;1.60;;;1.50;;
59239;SDS011;45010;53.640;10.578;2022-11-18T04:21:06;1.60;;;1.50;;
59239;SDS011;45010;53.640;10.578;2022-11-18T04:24:06;1.50;;;1.38;;
59239;SDS011;45010;53.640;10.578;2022-11-18T04:27:07;1.50;;;1.40;;
59239;SDS011;45010;53.640;10.578;2022-11-18T04:30:07;2.25;;;2.00;;
59239;SDS011;45010;53.640;10.578;2022-11-18T04:33:09;1.48;;;1.38;;
59239;SDS011;45010;53.640;10.578;2022-11-18T04:36:09;1.70;;;1.40;;
59239;SDS011;45010;53.640;10.578;2022-11-18T04:39:09;1.80;;;1.65;;
59239;SDS011;45010;53.640;10.578;2022-11-18T04:42:10;1.50;;;1.40;;
59239;SDS011;45010;53.640;10.578;2022-11-18T04:45:10;1.50;;;1.40;;
59239;SDS011;45010;53.640;10.578;2022-11-18T04:48:10;1.40;;;1.20;;
59239;SDS011;45010;53.640;10.578;2022-11-18T04:51:11;1.70;;;1.60;;
59239;SDS011;45010;53.640;10.578;2022-11-18T04:54:11;1.40;;;1.30;;
59239;SDS011;45010;53.640;10.578;2022-11-18T04:57:12;2.13;;;1.80;;
59239;SDS011;45010;53.640;10.578;2022-11-18T05:00:13;1.40;;;1.30;;
59239;SDS011;45010;53.640;10.578;2022-11-18T05:03:13;2.03;;;1.55;;
59239;SDS011;45010;53.640;10.578;2022-11-18T05:06:14;1.52;;;1.42;;
59239;SDS011;45010;53.640;10.578;2022-11-18T05:09:14;1.73;;;1.52;;
59239;SDS011;45010;53.640;10.578;2022-11-18T05:12:15;2.78;;;1.90;;
59239;SDS011;45010;53.640;10.578;2022-11-18T05:15:34;1.55;;;1.45;;
59239;SDS011;45010;53.640;10.578;2022-11-18T05:18:34;1.67;;;1.55;;
59239;SDS011;45010;53.640;10.578;2022-11-18T05:21:35;1.50;;;1.40;;
59239;SDS011;45010;53.640;10.578;2022-11-18T05:24:35;2.00;;;1.80;;
59239;SDS011;45010;53.640;10.578;2022-11-18T05:27:36;2.10;;;1.75;;
59239;SDS011;45010;53.640;10.578;2022-11-18T05:30:36;1.80;;;1.70;;
59239;SDS011;45010;53.640;10.578;2022-11-18T05:33:36;1.60;;;1.50;;
59239;SDS011;45010;53.640;10.578;2022-11-18T05:36:37;1.92;;;1.60;;
59239;SDS011;45010;53.640;10.578;2022-11-18T05:39:37;1.63;;;1.52;;
59239;SDS011;45010;53.640;10.578;2022-11-18T05:42:38;1.73;;;1.40;;
59239;SDS011;45010;53.640;10.578;2022-11-18T05:45:57;1.75;;;1.65;;
59239;SDS011;45010;53.640;10.578;2022-11-18T05:48:57;1.67;;;1.58;;
59239;SDS011;45010;53.640;10.578;2022-11-18T05:51:58;1.83;;;1.70;;
59239;SDS011;45010;53.640;10.578;2022-11-18T05:54:58;1.40;;;1.30;;
59239;SDS011;45010;53.640;10.578;2022-11-18T05:57:58;1.70;;;1.60;;
59239;SDS011;45010;53.640;10.578;2022-11-18T06:01:00;1.80;;;1.70;;
59239;SDS011;45010;53.640;10.578;2022-11-18T06:04:06;1.65;;;1.55;;
59239;SDS011;45010;53.640;10.578;2022-11-18T06:07:14;2.08;;;1.50;;
59239;SDS011;45010;53.640;10.578;2022-11-18T06:10:20;2.25;;;1.70;;
59239;SDS011;45010;53.640;10.578;2022-11-18T06:13:26;2.10;;;1.90;;
59239;SDS011;45010;53.640;10.578;2022-11-18T06:16:29;1.60;;;1.50;;
59239;SDS011;45010;53.640;10.578;2022-11-18T06:19:32;2.10;;;1.90;;
59239;SDS011;45010;53.640;10.578;2022-11-18T06:22:33;1.95;;;1.85;;
59239;SDS011;45010;53.640;10.578;2022-11-18T06:25:36;1.48;;;1.38;;
59239;SDS011;45010;53.640;10.578;2022-11-18T06:28:39;1.50;;;1.40;;
59239;SDS011;45010;53.640;10.578;2022-11-18T06:31:40;1.80;;;1.70;;
59239;SDS011;45010;53.640;10.578;2022-11-18T06:34:40;2.05;;;1.50;;
59239;SDS011;45010;53.640;10.578;2022-11-18T06:37:41;1.40;;;1.30;;
59239;SDS011;45010;53.640;10.578;2022-11-18T06:40:41;1.70;;;1.60;;
59239;SDS011;45010;53.640;10.578;2022-11-18T06:43:43;1.52;;;1.42;;
59239;SDS011;45010;53.640;10.578;2022-11-18T06:46:44;1.80;;;1.70;;
59239;SDS011;45010;53.640;10.578;2022-11-18T06:49:56;1.92;;;1.60;;
59239;SDS011;45010;53.640;10.578;2022-11-18T06:52:59;1.70;;;1.60;;
59239;SDS011;45010;53.640;10.578;2022-11-18T06:56:03;1.65;;;1.55;;
59239;SDS011;45010;53.640;10.578;2022-11-18T06:59:05;1.70;;;1.60;;
59239;SDS011;45010;53.640;10.578;2022-11-18T07:02:06;1.70;;;1.60;;
59239;SDS011;45010;53.640;10.578;2022-11-18T07:05:06;1.70;;;1.50;;
59239;SDS011;45010;53.640;10.578;2022-11-18T07:08:07;1.80;;;1.70;;
59239;SDS011;45010;53.640;10.578;2022-11-18T07:11:11;1.70;;;1.60;;
59239;SDS011;45010;53.640;10.578;2022-11-18T07:14:13;1.40;;;1.30;;
59239;SDS011;45010;53.640;10.578;2022-11-18T07:17:13;1.70;;;1.60;;
59239;SDS011;45010;53.640;10.578;2022-11-18T07:20:14;1.70;;;1.60;;
59239;SDS011;45010;53.640;10.578;2022-11-18T07:23:15;1.45;;;1.33;;
59239;SDS011;45010;53.640;10.578;2022-11-18T07:26:16;2.47;;;1.48;;
59239;SDS011;45010;53.640;10.578;2022-11-18T07:29:16;2.58;;;1.52;;
59239;SDS011;45010;53.640;10.578;2022-11-18T07:32:17;1.92;;;1.73;;
59239;SDS011;45010;53.640;10.578;2022-11-18T07:35:17;2.10;;;1.90;;
59239;SDS011;45010;53.640;10.578;2022-11-18T07:38:17;1.92;;;1.70;;
59239;SDS011;45010;53.640;10.578;2022-11-18T07:41:22;1.75;;;1.60;;
59239;SDS011;45010;53.640;10.578;2022-11-18T07:44:25;3.03;;;1.80;;
59239;SDS011;45010;53.640;10.578;2022-11-18T07:47:25;1.70;;;1.60;;
59239;SDS011;45010;53.640;10.578;2022-11-18T07:50:26;2.47;;;1.30;;
59239;SDS011;45010;53.640;10.578;2022-11-18T07:53:30;2.08;;;1.60;;
59239;SDS011;45010;53.640;10.578;2022-11-18T07:56:31;4.13;;;1.70;;
59239;SDS011;45010;53.640;10.578;2022-11-18T07:59:31;7.22;;;1.88;;
59239;SDS011;45010;53.640;10.578;2022-11-18T08:02:32;4.05;;;1.75;;
59239;SDS011;45010;53.640;10.578;2022-11-18T08:05:33;6.45;;;1.80;;
59239;SDS011;45010;53.640;10.578;2022-11-18T08:08:34;4.45;;;1.65;;
59239;SDS011;45010;53.640;10.578;2022-11-18T08:11:35;3.70;;;1.73;;
59239;SDS011;45010;53.640;10.578;2022-11-18T08:14:35;2.53;;;1.75;;
59239;SDS011;45010;53.640;10.578;2022-11-18T08:17:36;8.40;;;1.70;;
59239;SDS011;45010;53.640;10.578;2022-11-18T08:20:36;4.10;;;2.10;;
59239;SDS011;45010;53.640;10.578;2022-11-18T08:23:36;2.30;;;1.40;;
59239;SDS011;45010;53.640;10.578;2022-11-18T08:26:37;4.68;;;2.00;;
59239;SDS011;45010;53.640;10.578;2022-11-18T08:29:38;2.28;;;1.50;;
59239;SDS011;45010;53.640;10.578;2022-11-18T08:32:38;2.22;;;1.67;;
59239;SDS011;45010;53.640;10.578;2022-11-18T08:35:39;1.80;;;1.60;;
59239;SDS011;45010;53.640;10.578;2022-11-18T08:38:39;4.63;;;1.52;;
59239;SDS011;45010;53.640;10.578;2022-11-18T08:41:43;2.80;;;1.50;;
59239;SDS011;45010;53.640;10.578;2022-11-18T08:44:44;3.42;;;1.77;;
59239;SDS011;45010;53.640;10.578;2022-11-18T08:47:44;1.73;;;1.55;;
59239;SDS011;45010;53.640;10.578;2022-11-18T08:50:45;3.45;;;1.88;;
59239;SDS011;45010;53.640;10.578;2022-11-18T08:53:45;1.75;;;1.65;;
59239;SDS011;45010;53.640;10.578;2022-11-18T08:56:45;2.33;;;1.95;;
59239;SDS011;45010;53.640;10.578;2022-11-18T08:59:46;2.42;;;2.03;;
59239;SDS011;45010;53.640;10.578;2022-11-18T09:02:46;2.60;;;1.80;;
59239;SDS011;45010;53.640;10.578;2022-11-18T09:05:46;2.15;;;1.90;;
59239;SDS011;45010;53.640;10.578;2022-11-18T09:08:47;1.70;;;1.58;;
59239;SDS011;45010;53.640;10.578;2022-11-18T09:11:47;3.70;;;1.80;;
59239;SDS011;45010;53.640;10.578;2022-11-18T09:14:48;3.10;;;1.88;;
59239;SDS011;45010;53.640;10.578;2022-11-18T09:17:49;2.13;;;1.67;;
59239;SDS011;45010;53.640;10.578;2022-11-18T09:20:53;2.03;;;1.50;;
59239;SDS011;45010;53.640;10.578;2022-11-18T09:23:57;1.80;;;1.70;;
59239;SDS011;45010;53.640;10.578;2022-11-18T09:26:57;2.20;;;1.67;;
59239;SDS011;45010;53.640;10.578;2022-11-18T09:29:58;4.63;;;1.95;;
59239;SDS011;45010;53.640;10.578;2022-11-18T09:32:58;2.17;;;1.60;;
59239;SDS011;45010;53.640;10.578;2022-11-18T09:35:58;1.80;;;1.63;;
59239;SDS011;45010;53.640;10.578;2022-11-18T09:38:59;7.20;;;2.17;;
59239;SDS011;45010;53.640;10.578;2022-11-18T09:42:03;1.90;;;1.70;;
59239;SDS011;45010;53.640;10.578;2022-11-18T09:45:37;2.72;;;1.50;;
59239;SDS011;45010;53.640;10.578;2022-11-18T09:48:43;4.57;;;1.30;;
59239;SDS011;45010;53.640;10.578;2022-11-18T09:52:03;1.58;;;1.48;;
59239;SDS011;45010;53.640;10.578;2022-11-18T09:55:13;1.92;;;1.52;;
59239;SDS011;45010;53.640;10.578;2022-11-18T09:58:17;1.42;;;1.30;;
59239;SDS011;45010;53.640;10.578;2022-11-18T10:01:24;2.15;;;1.30;;
59239;SDS011;45010;53.640;10.578;2022-11-18T10:04:26;2.67;;;1.70;;
59239;SDS011;45010;53.640;10.578;2022-11-18T10:07:31;1.90;;;1.70;;
59239;SDS011;45010;53.640;10.578;2022-11-18T10:13:52;1.52;;;1.42;;
59239;SDS011;45010;53.640;10.578;2022-11-18T10:20:18;3.20;;;1.70;;
59239;SDS011;45010;53.640;10.578;2022-11-18T10:26:36;3.50;;;1.30;;
59239;SDS011;45010;53.640;10.578;2022-11-18T10:29:38;1.65;;;1.30;;
59239;SDS011;45010;53.640;10.578;2022-11-18T10:32:52;2.00;;;1.58;;
59239;SDS011;45010;53.640;10.578;2022-11-18T10:39:16;1.70;;;1.48;;
59239;SDS011;45010;53.640;10.578;2022-11-18T10:42:19;1.92;;;1.38;;
59239;SDS011;45010;53.640;10.578;2022-11-18T10:45:41;2.20;;;1.58;;
59239;SDS011;45010;53.640;10.578;2022-11-18T10:48:42;2.10;;;1.60;;
59239;SDS011;45010;53.640;10.578;2022-11-18T10:51:43;3.13;;;2.00;;
59239;SDS011;45010;53.640;10.578;2022-11-18T10:54:44;2.72;;;1.50;;
59239;SDS011;45010;53.640;10.578;2022-11-18T10:57:44;3.80;;;1.70;;
59239;SDS011;45010;53.640;10.578;2022-11-18T11:00:47;1.88;;;1.52;;
59239;SDS011;45010;53.640;10.578;2022-11-18T11:03:55;1.90;;;1.70;;
59239;SDS011;45010;53.640;10.578;2022-11-18T11:07:13;1.85;;;1.60;;
59239;SDS011;45010;53.640;10.578;2022-11-18T11:10:34;4.32;;;1.60;;
59239;SDS011;45010;53.640;10.578;2022-11-18T11:13:34;4.97;;;1.60;;
59239;SDS011;45010;53.640;10.578;2022-11-18T11:16:44;2.67;;;1.77;;
59239;SDS011;45010;53.640;10.578;2022-11-18T11:23:17;3.33;;;1.40;;
59239;SDS011;45010;53.640;10.578;2022-11-18T11:26:21;3.55;;;1.67;;
59239;SDS011;45010;53.640;10.578;2022-11-18T11:29:32;2.75;;;1.73;;
59239;SDS011;45010;53.640;10.578;2022-11-18T11:33:05;1.45;;;1.35;;
59239;SDS011;45010;53.640;10.578;2022-11-18T11:49:41;2.78;;;1.33;;
59239;SDS011;45010;53.640;10.578;2022-11-18T11:53:13;2.05;;;1.40;;
59239;SDS011;45010;53.640;10.578;2022-11-18T12:06:08;3.30;;;1.48;;
59239;SDS011;45010;53.640;10.578;2022-11-18T12:12:38;1.80;;;1.55;;
59239;SDS011;45010;53.640;10.578;2022-11-18T12:15:52;1.85;;;1.35;;
59239;SDS011;45010;53.640;10.578;2022-11-18T12:19:00;2.58;;;1.48;;
59239;SDS011;45010;53.640;10.578;2022-11-18T12:22:07;1.88;;;1.38;;
59239;SDS011;45010;53.640;10.578;2022-11-18T12:28:45;1.63;;;1.35;;
59239;SDS011;45010;53.640;10.578;2022-11-18T12:31:46;2.78;;;1.40;;
59239;SDS011;45010;53.640;10.578;2022-11-18T12:34:56;1.65;;;1.40;;
59239;SDS011;45010;53.640;10.578;2022-11-18T12:38:00;5.45;;;1.60;;
59239;SDS011;45010;53.640;10.578;2022-11-18T12:41:01;2.78;;;1.70;;
59239;SDS011;45010;53.640;10.578;2022-11-18T12:44:22;2.85;;;1.50;;
59239;SDS011;45010;53.640;10.578;2022-11-18T12:50:49;4.53;;;1.23;;
59239;SDS011;45010;53.640;10.578;2022-11-18T12:53:52;2.90;;;1.20;;
59239;SDS011;45010;53.640;10.578;2022-11-18T12:56:54;2.45;;;1.30;;
59239;SDS011;45010;53.640;10.578;2022-11-18T12:59:57;3.33;;;1.42;;
59239;SDS011;45010;53.640;10.578;2022-11-18T13:02:59;3.88;;;1.55;;
59239;SDS011;45010;53.640;10.578;2022-11-18T13:06:02;5.47;;;1.52;;
59239;SDS011;45010;53.640;10.578;2022-11-18T13:09:16;2.78;;;1.42;;
59239;SDS011;45010;53.640;10.578;2022-11-18T13:12:19;1.73;;;1.33;;
59239;SDS011;45010;53.640;10.578;2022-11-18T13:15:19;3.00;;;1.30;;
59239;SDS011;45010;53.640;10.578;2022-11-18T13:18:51;2.58;;;1.50;;
59239;SDS011;45010;53.640;10.578;2022-11-18T13:21:53;2.45;;;1.48;;
59239;SDS011;45010;53.640;10.578;2022-11-18T13:25:21;4.95;;;1.23;;
59239;SDS011;45010;53.640;10.578;2022-11-18T13:35:19;3.72;;;1.55;;
59239;SDS011;45010;53.640;10.578;2022-11-18T13:38:23;3.88;;;1.40;;
59239;SDS011;45010;53.640;10.578;2022-11-18T13:41:24;3.53;;;1.60;;
59239;SDS011;45010;53.640;10.578;2022-11-18T13:44:35;3.42;;;1.42;;
59239;SDS011;45010;53.640;10.578;2022-11-18T13:47:42;2.95;;;1.13;;
59239;SDS011;45010;53.640;10.578;2022-11-18T13:50:51;2.90;;;1.30;;
59239;SDS011;45010;53.640;10.578;2022-11-18T13:53:55;3.55;;;1.30;;
59239;SDS011;45010;53.640;10.578;2022-11-18T13:56:55;1.88;;;1.15;;
59239;SDS011;45010;53.640;10.578;2022-11-18T13:59:55;2.47;;;1.08;;
59239;SDS011;45010;53.640;10.578;2022-11-18T14:06:44;4.80;;;1.10;;
59239;SDS011;45010;53.640;10.578;2022-11-18T14:10:04;2.42;;;1.05;;
59239;SDS011;45010;53.640;10.578;2022-11-18T14:13:17;1.48;;;1.05;;
59239;SDS011;45010;53.640;10.578;2022-11-18T14:19:27;4.13;;;1.10;;
59239;SDS011;45010;53.640;10.578;2022-11-18T14:22:29;3.42;;;1.35;;
59239;SDS011;45010;53.640;10.578;2022-11-18T14:25:30;5.68;;;1.48;;
59239;SDS011;45010;53.640;10.578;2022-11-18T14:28:33;4.05;;;1.08;;
59239;SDS011;45010;53.640;10.578;2022-11-18T14:31:36;52.03;;;11.35;;
59239;SDS011;45010;53.640;10.578;2022-11-18T14:34:36;30.90;;;6.70;;
59239;SDS011;45010;53.640;10.578;2022-11-18T14:37:36;26.42;;;6.40;;
59239;SDS011;45010;53.640;10.578;2022-11-18T14:40:37;20.05;;;4.43;;
59239;SDS011;45010;53.640;10.578;2022-11-18T14:43:37;18.63;;;4.13;;
59239;SDS011;45010;53.640;10.578;2022-11-18T14:46:37;19.58;;;4.35;;
59239;SDS011;45010;53.640;10.578;2022-11-18T14:49:39;15.45;;;4.68;;
59239;SDS011;45010;53.640;10.578;2022-11-18T14:52:39;14.38;;;4.00;;
59239;SDS011;45010;53.640;10.578;2022-11-18T14:55:40;16.02;;;4.15;;
59239;SDS011;45010;53.640;10.578;2022-11-18T14:58:41;12.10;;;4.50;;
59239;SDS011;45010;53.640;10.578;2022-11-18T15:01:42;12.98;;;3.42;;
59239;SDS011;45010;53.640;10.578;2022-11-18T15:04:43;11.75;;;3.63;;
59239;SDS011;45010;53.640;10.578;2022-11-18T15:07:43;13.45;;;3.33;;
59239;SDS011;45010;53.640;10.578;2022-11-18T15:10:44;11.50;;;3.72;;
59239;SDS011;45010;53.640;10.578;2022-11-18T15:13:44;11.30;;;4.05;;
59239;SDS011;45010;53.640;10.578;2022-11-18T15:16:45;12.55;;;3.58;;
59239;SDS011;45010;53.640;10.578;2022-11-18T15:19:45;45.15;;;20.67;;
59239;SDS011;45010;53.640;10.578;2022-11-18T15:22:45;44.17;;;17.73;;
59239;SDS011;45010;53.640;10.578;2022-11-18T15:25:46;27.27;;;10.85;;
59239;SDS011;45010;53.640;10.578;2022-11-18T15:28:47;19.88;;;7.45;;
59239;SDS011;45010;53.640;10.578;2022-11-18T15:31:48;17.15;;;6.38;;
59239;SDS011;45010;53.640;10.578;2022-11-18T15:34:49;17.23;;;5.78;;
59239;SDS011;45010;53.640;10.578;2022-11-18T15:37:49;29.98;;;10.77;;
59239;SDS011;45010;53.640;10.578;2022-11-18T15:40:49;22.53;;;8.63;;
59239;SDS011;45010;53.640;10.578;2022-11-18T15:43:50;16.80;;;6.47;;
59239;SDS011;45010;53.640;10.578;2022-11-18T15:46:51;20.08;;;5.80;;
59239;SDS011;45010;53.640;10.578;2022-11-18T15:49:52;17.70;;;5.28;;
59239;SDS011;45010;53.640;10.578;2022-11-18T15:52:52;15.45;;;5.40;;
59239;SDS011;45010;53.640;10.578;2022-11-18T15:59:15;15.02;;;5.70;;
59239;SDS011;45010;53.640;10.578;2022-11-18T16:02:16;13.05;;;4.85;;
59239;SDS011;45010;53.640;10.578;2022-11-18T16:05:16;12.75;;;5.10;;
59239;SDS011;45010;53.640;10.578;2022-11-18T16:08:16;10.20;;;4.72;;
59239;SDS011;45010;53.640;10.578;2022-11-18T16:11:17;9.65;;;4.85;;
59239;SDS011;45010;53.640;10.578;2022-11-18T16:14:36;9.18;;;4.30;;
59239;SDS011;45010;53.640;10.578;2022-11-18T16:17:37;12.73;;;4.60;;
59239;SDS011;45010;53.640;10.578;2022-11-18T16:20:37;10.07;;;4.50;;
59239;SDS011;45010;53.640;10.578;2022-11-18T16:23:38;10.52;;;4.28;;
59239;SDS011;45010;53.640;10.578;2022-11-18T16:26:39;9.93;;;4.00;;
59239;SDS011;45010;53.640;10.578;2022-11-18T16:29:39;8.77;;;3.75;;
59239;SDS011;45010;53.640;10.578;2022-11-18T16:32:39;9.32;;;3.70;;
59239;SDS011;45010;53.640;10.578;2022-11-18T16:35:44;7.88;;;3.72;;
59239;SDS011;45010;53.640;10.578;2022-11-18T16:38:46;6.75;;;3.05;;
59239;SDS011;45010;53.640;10.578;2022-11-18T16:41:46;7.45;;;3.92;;
59239;SDS011;45010;53.640;10.578;2022-11-18T16:44:46;8.98;;;3.75;;
59239;SDS011;45010;53.640;10.578;2022-11-18T16:47:47;9.52;;;3.50;;
59239;SDS011;45010;53.640;10.578;2022-11-18T16:50:50;7.93;;;3.13;;
59239;SDS011;45010;53.640;10.578;2022-11-18T16:54:05;7.38;;;3.53;;
59239;SDS011;45010;53.640;10.578;2022-11-18T16:57:06;6.10;;;2.97;;
59239;SDS011;45010;53.640;10.578;2022-11-18T17:00:07;10.52;;;3.83;;
59239;SDS011;45010;53.640;10.578;2022-11-18T17:03:08;7.03;;;3.20;;
59239;SDS011;45010;53.640;10.578;2022-11-18T17:06:09;10.23;;;3.15;;
59239;SDS011;45010;53.640;10.578;2022-11-18T17:09:13;7.95;;;2.92;;
59239;SDS011;45010;53.640;10.578;2022-11-18T17:12:16;7.80;;;3.00;;
59239;SDS011;45010;53.640;10.578;2022-11-18T17:15:16;7.20;;;3.15;;
59239;SDS011;45010;53.640;10.578;2022-11-18T17:18:16;9.75;;;3.33;;
59239;SDS011;45010;53.640;10.578;2022-11-18T17:21:17;8.13;;;2.65;;
59239;SDS011;45010;53.640;10.578;2022-11-18T17:24:18;6.80;;;3.20;;
59239;SDS011;45010;53.640;10.578;2022-11-18T17:27:20;7.05;;;2.88;;
59239;SDS011;45010;53.640;10.578;2022-11-18T17:30:21;7.18;;;2.97;;
59239;SDS011;45010;53.640;10.578;2022-11-18T17:33:21;5.63;;;2.63;;
59239;SDS011;45010;53.640;10.578;2022-11-18T17:36:23;4.30;;;2.55;;
59239;SDS011;45010;53.640;10.578;2022-11-18T17:39:25;6.15;;;2.53;;
59239;SDS011;45010;53.640;10.578;2022-11-18T17:42:25;7.90;;;2.72;;
59239;SDS011;45010;53.640;10.578;2022-11-18T17:45:26;5.57;;;2.83;;
59239;SDS011;45010;53.640;10.578;2022-11-18T17:48:27;5.25;;;2.58;;
59239;SDS011;45010;53.640;10.578;2022-11-18T17:51:29;7.00;;;2.55;;
59239;SDS011;45010;53.640;10.578;2022-11-18T17:54:30;7.25;;;2.90;;
59239;SDS011;45010;53.640;10.578;2022-11-18T17:57:31;5.00;;;2.45;;
59239;SDS011;45010;53.640;10.578;2022-11-18T18:00:31;4.93;;;2.15;;
59239;SDS011;45010;53.640;10.578;2022-11-18T18:03:32;5.85;;;2.55;;
59239;SDS011;45010;53.640;10.578;2022-11-18T18:06:33;4.53;;;2.40;;
59239;SDS011;45010;53.640;10.578;2022-11-18T18:09:33;4.78;;;2.03;;
59239;SDS011;45010;53.640;10.578;2022-11-18T18:12:34;5.95;;;2.30;;
59239;SDS011;45010;53.640;10.578;2022-11-18T18:15:59;4.90;;;2.38;;
59239;SDS011;45010;53.640;10.578;2022-11-18T18:19:01;4.55;;;2.40;;
59239;SDS011;45010;53.640;10.578;2022-11-18T18:22:03;5.13;;;2.60;;
59239;SDS011;45010;53.640;10.578;2022-11-18T18:25:04;5.35;;;2.22;;
59239;SDS011;45010;53.640;10.578;2022-11-18T18:28:04;6.32;;;2.13;;
59239;SDS011;45010;53.640;10.578;2022-11-18T18:31:06;6.15;;;2.30;;
59239;SDS011;45010;53.640;10.578;2022-11-18T18:34:08;5.30;;;2.33;;
59239;SDS011;45010;53.640;10.578;2022-11-18T18:37:08;5.22;;;2.00;;
59239;SDS011;45010;53.640;10.578;2022-11-18T18:40:08;5.57;;;2.30;;
59239;SDS011;45010;53.640;10.578;2022-11-18T18:43:09;4.90;;;2.13;;
59239;SDS011;45010;53.640;10.578;2022-11-18T18:46:10;4.57;;;2.10;;
59239;SDS011;45010;53.640;10.578;2022-11-18T18:49:30;3.97;;;2.13;;
59239;SDS011;45010;53.640;10.578;2022-11-18T18:52:30;3.88;;;2.10;;
59239;SDS011;45010;53.640;10.578;2022-11-18T18:55:31;3.90;;;1.80;;
59239;SDS011;45010;53.640;10.578;2022-11-18T18:58:31;5.07;;;1.75;;
59239;SDS011;45010;53.640;10.578;2022-11-18T19:01:32;5.68;;;2.03;;
59239;SDS011;45010;53.640;10.578;2022-11-18T19:04:32;3.67;;;2.05;;
59239;SDS011;45010;53.640;10.578;2022-11-18T19:07:33;4.72;;;2.08;;
59239;SDS011;45010;53.640;10.578;2022-11-18T19:10:36;4.35;;;1.92;;
59239;SDS011;45010;53.640;10.578;2022-11-18T19:13:37;4.75;;;1.92;;
59239;SDS011;45010;53.640;10.578;2022-11-18T19:16:37;3.40;;;1.70;;
59239;SDS011;45010;53.640;10.578;2022-11-18T19:19:39;2.88;;;1.83;;
59239;SDS011;45010;53.640;10.578;2022-11-18T19:22:59;2.88;;;1.50;;
59239;SDS011;45010;53.640;10.578;2022-11-18T19:26:02;4.38;;;2.03;;
59239;SDS011;45010;53.640;10.578;2022-11-18T19:29:02;3.28;;;1.80;;
59239;SDS011;45010;53.640;10.578;2022-11-18T19:32:03;2.95;;;1.70;;